createdAt,value
2018-07-31T00:00:35.122Z,977.33
2018-07-31T00:01:35.062Z,977.33
2018-07-31T00:02:34.987Z,977.36
2018-07-31T00:03:34.917Z,977.31
2018-07-31T00:04:34.838Z,977.27
2018-07-31T00:05:34.774Z,977.30
2018-07-31T00:06:34.698Z,977.28
2018-07-31T00:07:34.630Z,977.28
2018-07-31T00:08:34.552Z,977.22
2018-07-31T00:09:34.488Z,977.23
2018-07-31T00:10:34.465Z,977.22
2018-07-31T00:11:34.341Z,977.22
2018-07-31T00:12:34.264Z,977.26
2018-07-31T00:13:34.201Z,977.23
2018-07-31T00:14:34.117Z,977.27
2018-07-31T00:15:34.056Z,977.26
2018-07-31T00:16:33.985Z,977.26
2018-07-31T00:17:33.913Z,977.22
2018-07-31T00:18:33.835Z,977.27
2018-07-31T00:19:33.771Z,977.24
2018-07-31T00:20:33.688Z,977.25
2018-07-31T00:21:33.633Z,977.24
2018-07-31T00:22:33.546Z,977.27
2018-07-31T00:23:33.481Z,977.26
2018-07-31T00:24:33.402Z,977.29
2018-07-31T00:25:33.338Z,977.25
2018-07-31T00:26:33.257Z,977.24
2018-07-31T00:27:33.192Z,977.22
2018-07-31T00:28:33.115Z,977.23
2018-07-31T00:29:33.050Z,977.26
2018-07-31T00:30:32.969Z,977.22
2018-07-31T00:31:32.907Z,977.22
2018-07-31T00:32:32.833Z,977.19
2018-07-31T00:33:32.763Z,977.20
2018-07-31T00:34:32.680Z,977.20
2018-07-31T00:35:32.615Z,977.21
2018-07-31T00:36:32.538Z,977.20
2018-07-31T00:37:32.475Z,977.20
2018-07-31T00:38:32.393Z,977.21
2018-07-31T00:39:32.332Z,977.23
2018-07-31T00:40:32.252Z,977.25
2018-07-31T00:41:32.182Z,977.22
2018-07-31T00:42:32.107Z,977.23
2018-07-31T00:43:32.042Z,977.24
2018-07-31T00:44:31.957Z,977.23
2018-07-31T00:45:31.895Z,977.23
2018-07-31T00:46:31.816Z,977.22
2018-07-31T00:47:31.753Z,977.23
2018-07-31T00:48:31.675Z,977.23
2018-07-31T00:49:31.606Z,977.21
2018-07-31T00:50:31.526Z,977.21
2018-07-31T00:51:31.467Z,977.23
2018-07-31T00:52:31.383Z,977.22
2018-07-31T00:53:31.318Z,977.25
2018-07-31T00:54:31.236Z,977.21
2018-07-31T00:55:31.173Z,977.22
2018-07-31T00:56:31.092Z,977.21
2018-07-31T00:57:31.026Z,977.21
2018-07-31T00:58:30.946Z,977.20
2018-07-31T00:59:30.881Z,977.19
2018-07-31T01:00:30.809Z,977.23
2018-07-31T01:01:30.740Z,977.16
2018-07-31T01:02:30.658Z,977.17
2018-07-31T01:03:30.592Z,977.19
2018-07-31T01:04:30.520Z,977.11
2018-07-31T01:05:30.449Z,977.13
2018-07-31T01:06:30.368Z,977.14
2018-07-31T01:07:30.302Z,977.15
2018-07-31T01:08:30.222Z,977.17
2018-07-31T01:09:30.157Z,977.16
2018-07-31T01:10:30.077Z,977.16
2018-07-31T01:11:30.011Z,977.15
2018-07-31T01:12:29.934Z,977.19
2018-07-31T01:13:29.870Z,977.18
2018-07-31T01:14:29.788Z,977.18
2018-07-31T01:15:29.723Z,977.17
2018-07-31T01:16:29.646Z,977.18
2018-07-31T01:17:29.577Z,977.18
2018-07-31T01:18:29.494Z,977.18
2018-07-31T01:19:29.431Z,977.19
2018-07-31T01:20:29.350Z,977.18
2018-07-31T01:21:29.286Z,977.19
2018-07-31T01:22:29.205Z,977.19
2018-07-31T01:23:29.140Z,977.20
2018-07-31T01:24:29.069Z,977.19
2018-07-31T01:25:29.001Z,977.15
2018-07-31T01:26:28.916Z,977.18
2018-07-31T01:27:28.848Z,977.15
2018-07-31T01:28:28.771Z,977.19
2018-07-31T01:29:29.705Z,977.19
2018-07-31T01:30:28.623Z,977.18
2018-07-31T01:31:28.561Z,977.20
2018-07-31T01:32:28.477Z,977.21
2018-07-31T01:33:28.412Z,977.19
2018-07-31T01:34:28.331Z,977.18
2018-07-31T01:35:28.271Z,977.20
2018-07-31T01:36:28.187Z,977.17
2018-07-31T01:37:28.123Z,977.14
2018-07-31T01:38:28.041Z,977.16
2018-07-31T01:39:27.975Z,977.15
2018-07-31T01:40:27.905Z,977.15
2018-07-31T01:41:27.831Z,977.18
2018-07-31T01:42:27.750Z,977.17
2018-07-31T01:43:27.690Z,977.15
2018-07-31T01:44:27.604Z,977.18
2018-07-31T01:45:27.537Z,977.20
2018-07-31T01:46:27.460Z,977.19
2018-07-31T01:47:27.399Z,977.21
2018-07-31T01:48:27.315Z,977.19
2018-07-31T01:49:27.249Z,977.23
2018-07-31T01:50:27.176Z,977.16
2018-07-31T01:51:27.105Z,977.18
2018-07-31T01:52:27.023Z,977.15
2018-07-31T01:53:26.959Z,977.14
2018-07-31T01:54:26.876Z,977.12
2018-07-31T01:55:26.810Z,977.14
2018-07-31T01:56:26.731Z,977.09
2018-07-31T01:57:26.665Z,977.07
2018-07-31T01:58:26.585Z,977.09
2018-07-31T01:59:26.523Z,977.04
2018-07-31T02:00:26.441Z,977.05
2018-07-31T02:01:26.374Z,977.02
2018-07-31T02:02:26.291Z,977.04
2018-07-31T02:03:26.232Z,977.04
2018-07-31T02:04:26.151Z,977.06
2018-07-31T02:05:26.083Z,977.04
2018-07-31T02:06:26.002Z,977.02
2018-07-31T02:07:25.937Z,977.03
2018-07-31T02:08:25.856Z,977.02
2018-07-31T02:09:25.796Z,977.05
2018-07-31T02:10:25.711Z,977.03
2018-07-31T02:11:25.648Z,977.01
2018-07-31T02:12:25.567Z,977.05
2018-07-31T02:13:25.500Z,977.03
2018-07-31T02:14:25.430Z,977.02
2018-07-31T02:15:25.352Z,977.02
2018-07-31T02:16:25.272Z,977.01
2018-07-31T02:17:25.235Z,977.05
2018-07-31T02:18:25.126Z,976.99
2018-07-31T02:19:25.060Z,977.00
2018-07-31T02:20:24.981Z,977.01
2018-07-31T02:21:24.916Z,976.97
2018-07-31T02:22:24.833Z,976.96
2018-07-31T02:23:24.774Z,976.97
2018-07-31T02:24:24.688Z,976.96
2018-07-31T02:25:24.624Z,976.93
2018-07-31T02:26:24.541Z,976.94
2018-07-31T02:27:24.479Z,976.92
2018-07-31T02:28:24.560Z,976.92
2018-07-31T02:29:24.330Z,976.92
2018-07-31T02:30:24.249Z,976.91
2018-07-31T02:31:24.187Z,976.88
2018-07-31T02:32:24.103Z,976.88
2018-07-31T02:33:24.043Z,976.90
2018-07-31T02:34:23.958Z,976.91
2018-07-31T02:35:23.891Z,976.87
2018-07-31T02:36:23.811Z,976.89
2018-07-31T02:37:23.756Z,976.89
2018-07-31T02:38:23.662Z,976.89
2018-07-31T02:39:23.593Z,976.91
2018-07-31T02:40:23.518Z,976.90
2018-07-31T02:41:23.457Z,976.90
2018-07-31T02:42:23.372Z,976.93
2018-07-31T02:43:23.307Z,976.93
2018-07-31T02:44:23.233Z,976.92
2018-07-31T02:45:23.159Z,976.90
2018-07-31T02:46:23.078Z,976.90
2018-07-31T02:47:23.019Z,976.92
2018-07-31T02:48:22.934Z,976.93
2018-07-31T02:49:22.868Z,976.88
2018-07-31T02:50:22.794Z,976.88
2018-07-31T02:51:22.721Z,976.91
2018-07-31T02:52:22.642Z,976.89
2018-07-31T02:53:22.575Z,976.89
2018-07-31T02:54:22.491Z,976.93
2018-07-31T02:55:22.438Z,976.90
2018-07-31T02:56:22.345Z,976.90
2018-07-31T02:57:22.284Z,976.90
2018-07-31T02:58:22.274Z,976.89
2018-07-31T02:59:22.135Z,976.92
2018-07-31T03:00:22.060Z,976.91
2018-07-31T03:01:22.015Z,976.92
2018-07-31T03:02:21.907Z,976.93
2018-07-31T03:03:21.844Z,976.93
2018-07-31T03:04:21.764Z,976.91
2018-07-31T03:05:21.701Z,976.90
2018-07-31T03:06:21.616Z,976.89
2018-07-31T03:07:21.550Z,976.85
2018-07-31T03:08:21.473Z,976.89
2018-07-31T03:09:21.404Z,976.90
2018-07-31T03:10:21.323Z,976.89
2018-07-31T03:11:21.263Z,976.88
2018-07-31T03:12:21.179Z,976.91
2018-07-31T03:13:21.112Z,976.91
2018-07-31T03:14:21.032Z,976.90
2018-07-31T03:15:20.966Z,976.91
2018-07-31T03:16:20.888Z,976.92
2018-07-31T03:17:20.819Z,976.95
2018-07-31T03:18:20.735Z,976.95
2018-07-31T03:19:20.675Z,976.97
2018-07-31T03:20:20.591Z,976.96
2018-07-31T03:21:20.523Z,976.96
2018-07-31T03:22:20.442Z,976.98
2018-07-31T03:23:20.376Z,976.99
2018-07-31T03:24:20.297Z,976.98
2018-07-31T03:25:20.235Z,976.98
2018-07-31T03:26:20.151Z,976.95
2018-07-31T03:27:20.084Z,976.95
2018-07-31T03:28:20.056Z,976.97
2018-07-31T03:29:19.939Z,976.94
2018-07-31T03:30:19.859Z,976.95
2018-07-31T03:31:19.789Z,976.94
2018-07-31T03:32:19.709Z,976.92
2018-07-31T03:33:19.646Z,976.94
2018-07-31T03:34:19.562Z,976.91
2018-07-31T03:35:19.498Z,976.94
2018-07-31T03:36:19.417Z,976.88
2018-07-31T03:37:19.354Z,976.87
2018-07-31T03:38:19.268Z,976.88
2018-07-31T03:39:19.206Z,976.88
2018-07-31T03:40:19.124Z,976.86
2018-07-31T03:41:19.056Z,976.87
2018-07-31T03:42:18.969Z,976.89
2018-07-31T03:43:18.908Z,976.90
2018-07-31T03:44:18.829Z,976.91
2018-07-31T03:45:18.762Z,976.89
2018-07-31T03:46:18.682Z,976.93
2018-07-31T03:47:18.615Z,976.94
2018-07-31T03:48:18.535Z,976.96
2018-07-31T03:49:18.474Z,976.93
2018-07-31T03:50:18.390Z,976.89
2018-07-31T03:51:18.321Z,976.97
2018-07-31T03:52:18.242Z,976.93
2018-07-31T03:53:18.176Z,976.94
2018-07-31T03:54:18.093Z,976.97
2018-07-31T03:55:18.026Z,976.98
2018-07-31T03:56:18.003Z,976.98
2018-07-31T03:57:17.960Z,977.00
2018-07-31T03:58:17.798Z,977.01
2018-07-31T03:59:17.776Z,977.05
2018-07-31T04:00:17.649Z,977.06
2018-07-31T04:01:17.586Z,977.04
2018-07-31T04:02:17.504Z,977.03
2018-07-31T04:03:17.438Z,977.06
2018-07-31T04:04:17.357Z,977.07
2018-07-31T04:05:17.302Z,977.08
2018-07-31T04:06:17.208Z,977.07
2018-07-31T04:07:17.153Z,977.06
2018-07-31T04:08:17.060Z,977.01
2018-07-31T04:09:17.002Z,977.06
2018-07-31T04:10:16.914Z,977.06
2018-07-31T04:11:16.932Z,977.07
2018-07-31T04:12:16.770Z,977.05
2018-07-31T04:13:16.702Z,977.06
2018-07-31T04:14:16.620Z,977.07
2018-07-31T04:15:16.650Z,977.06
2018-07-31T04:16:16.472Z,977.07
2018-07-31T04:17:16.541Z,977.09
2018-07-31T04:18:16.324Z,977.11
2018-07-31T04:19:16.255Z,977.10
2018-07-31T04:20:16.178Z,977.14
2018-07-31T04:21:16.114Z,977.11
2018-07-31T04:22:16.029Z,977.11
2018-07-31T04:23:15.963Z,977.09
2018-07-31T04:24:15.882Z,977.12
2018-07-31T04:25:15.829Z,977.13
2018-07-31T04:26:15.734Z,977.15
2018-07-31T04:27:15.669Z,977.18
2018-07-31T04:28:15.585Z,977.18
2018-07-31T04:29:15.520Z,977.21
2018-07-31T04:30:15.520Z,977.16
2018-07-31T04:31:15.374Z,977.19
2018-07-31T04:32:15.292Z,977.17
2018-07-31T04:33:15.232Z,977.19
2018-07-31T04:34:15.143Z,977.17
2018-07-31T04:35:15.146Z,977.20
2018-07-31T04:36:15.061Z,977.18
2018-07-31T04:37:14.937Z,977.17
2018-07-31T04:38:14.851Z,977.18
2018-07-31T04:39:14.785Z,977.21
2018-07-31T04:40:14.703Z,977.21
2018-07-31T04:41:14.737Z,977.21
2018-07-31T04:42:14.561Z,977.20
2018-07-31T04:43:14.589Z,977.19
2018-07-31T04:44:14.405Z,977.18
2018-07-31T04:45:14.394Z,977.18
2018-07-31T04:46:14.259Z,977.20
2018-07-31T04:47:14.302Z,977.20
2018-07-31T04:48:14.115Z,977.19
2018-07-31T04:49:14.049Z,977.20
2018-07-31T04:50:14.003Z,977.24
2018-07-31T04:51:13.932Z,977.23
2018-07-31T04:52:13.821Z,977.23
2018-07-31T04:53:13.832Z,977.27
2018-07-31T04:54:13.673Z,977.26
2018-07-31T04:55:13.636Z,977.27
2018-07-31T04:56:13.525Z,977.26
2018-07-31T04:57:13.551Z,977.26
2018-07-31T04:58:13.379Z,977.30
2018-07-31T04:59:13.360Z,977.25
2018-07-31T05:00:13.228Z,977.28
2018-07-31T05:01:13.171Z,977.29
2018-07-31T05:02:13.084Z,977.27
2018-07-31T05:03:13.081Z,977.28
2018-07-31T05:04:12.941Z,977.27
2018-07-31T05:05:12.892Z,977.25
2018-07-31T05:06:12.789Z,977.27
2018-07-31T05:07:12.800Z,977.30
2018-07-31T05:08:12.646Z,977.30
2018-07-31T05:09:12.608Z,977.26
2018-07-31T05:10:12.495Z,977.30
2018-07-31T05:11:12.533Z,977.28
2018-07-31T05:12:12.349Z,977.32
2018-07-31T05:13:12.325Z,977.32
2018-07-31T05:14:12.202Z,977.34
2018-07-31T05:15:12.239Z,977.31
2018-07-31T05:16:12.054Z,977.27
2018-07-31T05:17:11.991Z,977.31
2018-07-31T05:18:11.955Z,977.29
2018-07-31T05:19:11.856Z,977.33
2018-07-31T05:20:11.761Z,977.35
2018-07-31T05:21:11.768Z,977.34
2018-07-31T05:22:11.613Z,977.33
2018-07-31T05:23:11.575Z,977.37
2018-07-31T05:24:11.470Z,977.37
2018-07-31T05:25:11.532Z,977.38
2018-07-31T05:26:11.321Z,977.40
2018-07-31T05:27:11.300Z,977.39
2018-07-31T05:28:11.172Z,977.44
2018-07-31T05:29:11.209Z,977.43
2018-07-31T05:30:11.029Z,977.46
2018-07-31T05:31:11.012Z,977.50
2018-07-31T05:32:10.884Z,977.53
2018-07-31T05:33:10.936Z,977.51
2018-07-31T05:34:10.733Z,977.47
2018-07-31T05:35:10.741Z,977.50
2018-07-31T05:36:10.589Z,977.49
2018-07-31T05:37:10.540Z,977.52
2018-07-31T05:38:10.446Z,977.53
2018-07-31T05:39:10.455Z,977.51
2018-07-31T05:40:10.294Z,977.50
2018-07-31T05:41:10.265Z,977.52
2018-07-31T05:42:10.147Z,977.54
2018-07-31T05:43:11.097Z,977.50
2018-07-31T05:44:10.005Z,977.51
2018-07-31T05:45:09.983Z,977.51
2018-07-31T05:46:09.869Z,977.51
2018-07-31T05:47:14.813Z,977.50
2018-07-31T05:48:09.714Z,977.53
2018-07-31T05:49:09.705Z,977.57
2018-07-31T05:50:09.565Z,977.54
2018-07-31T05:51:09.512Z,977.54
2018-07-31T05:52:09.427Z,977.57
2018-07-31T05:53:09.424Z,977.51
2018-07-31T05:54:09.274Z,977.54
2018-07-31T05:55:09.232Z,977.50
2018-07-31T05:56:09.125Z,977.56
2018-07-31T05:57:09.143Z,977.56
2018-07-31T05:58:08.983Z,977.54
2018-07-31T05:59:08.956Z,977.57
2018-07-31T06:00:08.839Z,977.57
2018-07-31T06:01:08.862Z,977.56
2018-07-31T06:02:08.694Z,977.58
2018-07-31T06:03:08.666Z,977.56
2018-07-31T06:04:08.547Z,977.58
2018-07-31T06:05:08.581Z,977.56
2018-07-31T06:06:08.403Z,977.55
2018-07-31T06:07:08.391Z,977.58
2018-07-31T06:08:08.258Z,977.58
2018-07-31T06:09:08.304Z,977.58
2018-07-31T06:10:08.117Z,977.58
2018-07-31T06:11:08.113Z,977.59
2018-07-31T06:12:07.968Z,977.61
2018-07-31T06:13:07.920Z,977.63
2018-07-31T06:14:07.825Z,977.61
2018-07-31T06:15:07.880Z,977.63
2018-07-31T06:16:07.680Z,977.64
2018-07-31T06:17:07.639Z,977.64
2018-07-31T06:18:07.536Z,977.63
2018-07-31T06:19:07.551Z,977.64
2018-07-31T06:20:07.390Z,977.66
2018-07-31T06:21:07.359Z,977.67
2018-07-31T06:22:07.245Z,977.67
2018-07-31T06:23:07.270Z,977.68
2018-07-31T06:24:07.100Z,977.67
2018-07-31T06:25:07.078Z,977.66
2018-07-31T06:26:06.956Z,977.71
2018-07-31T06:27:07.100Z,977.71
2018-07-31T06:28:06.815Z,977.71
2018-07-31T06:29:06.795Z,977.69
2018-07-31T06:30:06.667Z,977.75
2018-07-31T06:31:06.708Z,977.77
2018-07-31T06:32:06.526Z,977.78
2018-07-31T06:33:06.520Z,977.74
2018-07-31T06:34:06.382Z,977.76
2018-07-31T06:35:06.330Z,977.76
2018-07-31T06:36:06.241Z,977.73
2018-07-31T06:37:06.239Z,977.75
2018-07-31T06:38:06.095Z,977.77
2018-07-31T06:39:06.044Z,977.77
2018-07-31T06:40:05.955Z,977.77
2018-07-31T06:41:05.957Z,977.78
2018-07-31T06:42:05.809Z,977.81
2018-07-31T06:43:05.765Z,977.83
2018-07-31T06:44:05.664Z,977.84
2018-07-31T06:45:05.678Z,977.83
2018-07-31T06:46:05.524Z,977.88
2018-07-31T06:47:05.488Z,977.89
2018-07-31T06:48:05.378Z,977.93
2018-07-31T06:49:05.399Z,977.89
2018-07-31T06:50:05.237Z,977.87
2018-07-31T06:51:05.204Z,977.89
2018-07-31T06:52:05.095Z,977.92
2018-07-31T06:53:05.116Z,977.91
2018-07-31T06:54:04.956Z,977.91
2018-07-31T06:55:04.925Z,977.92
2018-07-31T06:56:04.809Z,977.90
2018-07-31T06:57:04.836Z,977.93
2018-07-31T06:58:04.671Z,977.95
2018-07-31T06:59:04.645Z,977.98
2018-07-31T07:00:04.530Z,977.98
2018-07-31T07:01:04.560Z,977.97
2018-07-31T07:02:04.402Z,977.99
2018-07-31T07:03:04.364Z,978.00
2018-07-31T07:04:04.245Z,977.98
2018-07-31T07:05:04.276Z,977.99
2018-07-31T07:06:04.104Z,978.02
2018-07-31T07:07:04.082Z,978.03
2018-07-31T07:08:03.969Z,977.98
2018-07-31T07:09:03.998Z,977.98
2018-07-31T07:10:03.824Z,978.02
2018-07-31T07:11:03.806Z,978.02
2018-07-31T07:12:03.685Z,978.00
2018-07-31T07:13:03.717Z,978.05
2018-07-31T07:14:03.542Z,978.02
2018-07-31T07:15:03.525Z,977.99
2018-07-31T07:16:03.400Z,978.04
2018-07-31T07:17:03.476Z,978.01
2018-07-31T07:18:03.260Z,978.03
2018-07-31T07:19:03.243Z,978.08
2018-07-31T07:20:03.121Z,978.07
2018-07-31T07:21:03.153Z,978.06
2018-07-31T07:22:02.982Z,978.03
2018-07-31T07:23:02.961Z,978.04
2018-07-31T07:24:02.842Z,978.04
2018-07-31T07:25:02.873Z,978.07
2018-07-31T07:26:02.706Z,978.07
2018-07-31T07:27:02.682Z,978.07
2018-07-31T07:28:02.573Z,978.11
2018-07-31T07:29:02.594Z,978.08
2018-07-31T07:30:02.429Z,978.07
2018-07-31T07:31:02.403Z,978.08
2018-07-31T07:32:02.286Z,978.09
2018-07-31T07:33:02.312Z,978.06
2018-07-31T07:34:02.194Z,978.06
2018-07-31T07:35:02.127Z,978.08
2018-07-31T07:36:02.014Z,978.08
2018-07-31T07:37:02.037Z,978.07
2018-07-31T07:38:01.872Z,978.09
2018-07-31T07:39:01.840Z,978.09
2018-07-31T07:40:01.734Z,978.12
2018-07-31T07:41:01.755Z,978.12
2018-07-31T07:42:01.597Z,978.12
2018-07-31T07:43:01.560Z,978.13
2018-07-31T07:44:01.467Z,978.11
2018-07-31T07:45:01.473Z,978.11
2018-07-31T07:46:01.323Z,978.11
2018-07-31T07:47:01.280Z,978.12
2018-07-31T07:48:01.193Z,978.10
2018-07-31T07:49:01.189Z,978.13
2018-07-31T07:50:01.056Z,978.09
2018-07-31T07:51:01.002Z,978.11
2018-07-31T07:52:00.917Z,978.10
2018-07-31T07:53:00.913Z,978.09
2018-07-31T07:54:00.793Z,978.09
2018-07-31T07:55:00.824Z,978.11
2018-07-31T07:56:00.645Z,978.09
2018-07-31T07:57:00.632Z,978.08
2018-07-31T07:58:00.508Z,978.07
2018-07-31T07:59:00.545Z,978.07
2018-07-31T08:00:00.376Z,978.07
2018-07-31T08:01:00.354Z,978.05
2018-07-31T08:02:00.241Z,978.06
2018-07-31T08:03:00.262Z,978.07
2018-07-31T08:04:00.131Z,978.04
2018-07-31T08:05:00.072Z,978.04
2018-07-31T08:05:59.974Z,978.07
2018-07-31T08:06:59.984Z,978.06
2018-07-31T08:07:59.840Z,978.09
2018-07-31T08:08:59.793Z,978.09
2018-07-31T08:09:59.707Z,978.10
2018-07-31T08:10:59.707Z,978.09
2018-07-31T08:11:59.575Z,978.10
2018-07-31T08:12:59.615Z,978.09
2018-07-31T08:13:59.441Z,978.10
2018-07-31T08:14:59.477Z,978.10
2018-07-31T08:15:59.310Z,978.12
2018-07-31T08:16:59.343Z,978.14
2018-07-31T08:17:59.176Z,978.08
2018-07-31T08:18:59.169Z,978.15
2018-07-31T08:19:59.046Z,978.13
2018-07-31T08:20:59.054Z,978.16
2018-07-31T08:21:58.914Z,978.13
2018-07-31T08:22:58.965Z,978.12
2018-07-31T08:23:58.785Z,978.10
2018-07-31T08:24:58.776Z,978.14
2018-07-31T08:25:58.654Z,978.12
2018-07-31T08:26:58.686Z,978.14
2018-07-31T08:27:58.525Z,978.13
2018-07-31T08:28:58.494Z,978.15
2018-07-31T08:29:58.392Z,978.15
2018-07-31T08:30:58.415Z,978.14
2018-07-31T08:31:58.264Z,978.13
2018-07-31T08:32:58.316Z,978.13
2018-07-31T08:33:58.131Z,978.15
2018-07-31T08:34:58.122Z,978.15
2018-07-31T08:35:58.006Z,978.13
2018-07-31T08:36:58.035Z,978.14
2018-07-31T08:37:57.878Z,978.12
2018-07-31T08:38:57.848Z,978.11
2018-07-31T08:39:57.750Z,978.12
2018-07-31T08:40:57.755Z,978.14
2018-07-31T08:41:57.627Z,978.14
2018-07-31T08:42:57.668Z,978.12
2018-07-31T08:43:57.491Z,978.10
2018-07-31T08:44:57.476Z,978.11
2018-07-31T08:45:57.363Z,978.09
2018-07-31T08:46:57.385Z,978.10
2018-07-31T08:47:57.233Z,978.10
2018-07-31T08:48:57.197Z,978.10
2018-07-31T08:49:57.107Z,978.07
2018-07-31T08:50:57.107Z,978.08
2018-07-31T08:51:56.986Z,978.06
2018-07-31T08:52:57.018Z,978.09
2018-07-31T08:53:56.852Z,978.10
2018-07-31T08:54:56.827Z,978.09
2018-07-31T08:55:56.727Z,978.09
2018-07-31T08:56:56.767Z,978.11
2018-07-31T08:57:56.600Z,978.09
2018-07-31T08:58:56.649Z,978.09
2018-07-31T08:59:56.475Z,978.05
2018-07-31T09:00:56.458Z,978.06
2018-07-31T09:01:56.344Z,978.07
2018-07-31T09:02:56.370Z,978.05
2018-07-31T09:03:56.219Z,978.06
2018-07-31T09:04:56.180Z,978.04
2018-07-31T09:05:56.094Z,978.03
2018-07-31T09:06:56.089Z,978.01
2018-07-31T09:07:55.966Z,978.05
2018-07-31T09:08:56.084Z,978.01
2018-07-31T09:09:55.840Z,978.03
2018-07-31T09:10:55.822Z,978.04
2018-07-31T09:11:55.714Z,978.02
2018-07-31T09:12:55.725Z,977.98
2018-07-31T09:13:55.589Z,978.02
2018-07-31T09:14:55.632Z,977.97
2018-07-31T09:15:55.464Z,978.01
2018-07-31T09:16:55.438Z,977.99
2018-07-31T09:17:55.340Z,978.01
2018-07-31T09:18:55.352Z,978.00
2018-07-31T09:19:55.212Z,978.03
2018-07-31T09:20:55.263Z,978.02
2018-07-31T09:21:55.092Z,978.01
2018-07-31T09:22:55.071Z,978.03
2018-07-31T09:23:54.968Z,978.04
2018-07-31T09:24:55.059Z,978.03
2018-07-31T09:25:54.842Z,977.99
2018-07-31T09:26:54.894Z,978.02
2018-07-31T09:27:54.715Z,978.05
2018-07-31T09:28:54.730Z,978.02
2018-07-31T09:29:54.591Z,978.05
2018-07-31T09:30:54.793Z,978.01
2018-07-31T09:31:54.467Z,977.99
2018-07-31T09:32:54.424Z,978.02
2018-07-31T09:33:54.344Z,978.01
2018-07-31T09:34:54.330Z,978.02
2018-07-31T09:35:54.219Z,978.01
2018-07-31T09:36:54.245Z,978.00
2018-07-31T09:37:54.100Z,978.01
2018-07-31T09:38:54.054Z,977.99
2018-07-31T09:39:53.970Z,978.00
2018-07-31T09:40:53.963Z,977.99
2018-07-31T09:41:53.850Z,977.98
2018-07-31T09:42:53.877Z,978.01
2018-07-31T09:43:53.727Z,978.00
2018-07-31T09:44:53.685Z,978.01
2018-07-31T09:45:53.603Z,978.02
2018-07-31T09:46:53.596Z,977.98
2018-07-31T09:47:53.480Z,978.00
2018-07-31T09:48:53.508Z,978.00
2018-07-31T09:49:53.357Z,977.97
2018-07-31T09:50:53.315Z,977.95
2018-07-31T09:51:53.233Z,977.96
2018-07-31T09:52:53.225Z,977.98
2018-07-31T09:53:53.111Z,977.94
2018-07-31T09:54:53.139Z,977.91
2018-07-31T09:55:52.993Z,977.90
2018-07-31T09:56:53.061Z,977.95
2018-07-31T09:57:52.865Z,977.94
2018-07-31T09:58:52.857Z,977.93
2018-07-31T09:59:52.754Z,977.94
2018-07-31T10:00:52.786Z,977.96
2018-07-31T10:01:52.620Z,977.94
2018-07-31T10:02:52.578Z,977.92
2018-07-31T10:03:52.500Z,977.95
2018-07-31T10:04:52.494Z,977.96
2018-07-31T10:05:52.380Z,977.94
2018-07-31T10:06:52.402Z,977.93
2018-07-31T10:07:52.261Z,977.94
2018-07-31T10:08:52.312Z,977.93
2018-07-31T10:09:52.133Z,977.92
2018-07-31T10:10:52.122Z,977.93
2018-07-31T10:11:52.031Z,977.91
2018-07-31T10:12:52.032Z,977.89
2018-07-31T10:13:51.891Z,977.85
2018-07-31T10:14:51.942Z,977.88
2018-07-31T10:15:51.765Z,977.82
2018-07-31T10:16:51.751Z,977.81
2018-07-31T10:17:51.678Z,977.84
2018-07-31T10:18:51.663Z,977.78
2018-07-31T10:19:51.524Z,977.79
2018-07-31T10:20:51.568Z,977.75
2018-07-31T10:21:51.404Z,977.80
2018-07-31T10:22:51.382Z,977.81
2018-07-31T10:23:51.287Z,977.79
2018-07-31T10:24:51.294Z,977.81
2018-07-31T10:25:51.164Z,977.79
2018-07-31T10:26:51.208Z,977.74
2018-07-31T10:27:51.043Z,977.75
2018-07-31T10:28:51.011Z,977.83
2018-07-31T10:29:50.922Z,977.73
2018-07-31T10:30:51.012Z,977.73
2018-07-31T10:31:50.814Z,977.68
2018-07-31T10:32:50.837Z,977.75
2018-07-31T10:33:50.680Z,977.71
2018-07-31T10:34:50.646Z,977.72
2018-07-31T10:35:50.561Z,977.73
2018-07-31T10:36:50.554Z,977.78
2018-07-31T10:37:50.516Z,977.75
2018-07-31T10:38:50.468Z,977.67
2018-07-31T10:39:50.316Z,977.65
2018-07-31T10:40:50.281Z,977.75
2018-07-31T10:41:50.196Z,977.76
2018-07-31T10:42:50.186Z,977.78
2018-07-31T10:43:50.082Z,977.73
2018-07-31T10:44:50.097Z,977.76
2018-07-31T10:45:49.958Z,977.69
2018-07-31T10:46:50.011Z,977.74
2018-07-31T10:47:49.834Z,977.68
2018-07-31T10:48:49.861Z,977.72
2018-07-31T10:49:49.713Z,977.70
2018-07-31T10:50:49.731Z,977.70
2018-07-31T10:51:49.601Z,977.68
2018-07-31T10:52:49.641Z,977.67
2018-07-31T10:53:49.470Z,977.69
2018-07-31T10:54:49.449Z,977.69
2018-07-31T10:55:49.353Z,977.68
2018-07-31T10:56:49.359Z,977.67
2018-07-31T10:57:49.233Z,977.68
2018-07-31T10:58:49.272Z,977.69
2018-07-31T10:59:49.155Z,977.66
2018-07-31T11:00:49.080Z,977.65
2018-07-31T11:01:48.995Z,977.62
2018-07-31T11:02:49.058Z,977.65
2018-07-31T11:03:48.915Z,977.59
2018-07-31T11:04:48.937Z,977.64
2018-07-31T11:05:48.754Z,977.65
2018-07-31T11:06:48.711Z,977.65
2018-07-31T11:07:48.632Z,977.62
2018-07-31T11:08:48.624Z,977.58
2018-07-31T11:09:48.514Z,977.59
2018-07-31T11:10:48.534Z,977.59
2018-07-31T11:11:48.393Z,977.56
2018-07-31T11:12:48.342Z,977.55
2018-07-31T11:13:48.284Z,977.52
2018-07-31T11:14:48.253Z,977.52
2018-07-31T11:15:48.158Z,977.53
2018-07-31T11:16:48.164Z,977.50
2018-07-31T11:17:48.038Z,977.55
2018-07-31T11:18:48.070Z,977.52
2018-07-31T11:19:47.920Z,977.57
2018-07-31T11:20:47.887Z,977.53
2018-07-31T11:21:47.800Z,977.52
2018-07-31T11:22:47.745Z,977.53
2018-07-31T11:23:47.680Z,977.57
2018-07-31T11:24:47.708Z,977.58
2018-07-31T11:25:47.564Z,977.55
2018-07-31T11:26:47.618Z,977.59
2018-07-31T11:27:47.440Z,977.59
2018-07-31T11:28:47.428Z,977.53
2018-07-31T11:29:47.318Z,977.53
2018-07-31T11:30:47.337Z,977.51
2018-07-31T11:31:47.205Z,977.51
2018-07-31T11:32:47.249Z,977.50
2018-07-31T11:33:47.086Z,977.45
2018-07-31T11:34:47.053Z,977.44
2018-07-31T11:35:46.968Z,977.37
2018-07-31T11:36:46.970Z,977.38
2018-07-31T11:37:46.846Z,977.43
2018-07-31T11:38:46.795Z,977.42
2018-07-31T11:39:46.734Z,977.44
2018-07-31T11:40:46.695Z,977.46
2018-07-31T11:41:46.613Z,977.44
2018-07-31T11:42:46.555Z,977.48
2018-07-31T11:43:46.491Z,977.45
2018-07-31T11:44:46.512Z,977.42
2018-07-31T11:45:46.373Z,977.39
2018-07-31T11:46:46.327Z,977.41
2018-07-31T11:47:46.255Z,977.35
2018-07-31T11:48:46.204Z,977.41
2018-07-31T11:49:46.191Z,977.33
2018-07-31T11:50:46.086Z,977.34
2018-07-31T11:51:46.016Z,977.34
2018-07-31T11:52:45.968Z,977.31
2018-07-31T11:53:45.900Z,977.30
2018-07-31T11:54:45.863Z,977.31
2018-07-31T11:55:45.786Z,977.32
2018-07-31T11:56:45.774Z,977.30
2018-07-31T11:57:45.666Z,977.33
2018-07-31T11:58:45.614Z,977.29
2018-07-31T11:59:45.545Z,977.30
2018-07-31T12:00:45.493Z,977.23
2018-07-31T12:01:45.455Z,977.23
2018-07-31T12:02:45.400Z,977.22
2018-07-31T12:03:45.307Z,977.20
2018-07-31T12:04:45.316Z,977.23
2018-07-31T12:05:45.189Z,977.21
2018-07-31T12:06:45.141Z,977.22
2018-07-31T12:07:45.071Z,977.21
2018-07-31T12:08:45.020Z,977.20
2018-07-31T12:09:44.956Z,977.22
2018-07-31T12:10:44.947Z,977.24
2018-07-31T12:11:44.833Z,977.21
2018-07-31T12:12:44.858Z,977.23
2018-07-31T12:13:44.719Z,977.24
2018-07-31T12:14:44.769Z,977.22
2018-07-31T12:15:44.606Z,977.20
2018-07-31T12:16:44.577Z,977.16
2018-07-31T12:17:44.477Z,977.17
2018-07-31T12:18:44.490Z,977.17
2018-07-31T12:19:44.366Z,977.12
2018-07-31T12:20:44.443Z,977.16
2018-07-31T12:21:44.239Z,977.19
2018-07-31T12:22:44.206Z,977.17
2018-07-31T12:23:44.155Z,977.20
2018-07-31T12:24:44.120Z,977.24
2018-07-31T12:25:44.012Z,977.18
2018-07-31T12:26:44.031Z,977.20
2018-07-31T12:27:43.891Z,977.16